Time;durP1;ratioP1;P1;durP2;ratioP2;P2;SDS_P1;SDS_P2;PMS_P1;PMS_P2;Temp;Humidity;BMP_temperature;BMP_pressure;BME280_temperature;BME280_humidity;BME280_pressure;Samples;Min_cycle;Max_cycle;Signal;HPM_P1;HPM_P2
2022/07/05 00:02:22;;;;;;;8.52;3.00;;;12.50;99.90;;;;;;5014364;28;20078;-74
2022/07/05 00:04:47;;;;;;;6.85;2.80;;;12.50;99.90;;;;;;5022727;27;20044;-74
2022/07/05 00:07:19;;;;;;;6.32;2.80;;;12.50;99.90;;;;;;5030040;27;20041;-74
2022/07/05 00:09:56;;;;;;;6.57;2.72;;;12.40;99.90;;;;;;5025338;28;20048;-75
2022/07/05 00:12:27;;;;;;;5.30;2.47;;;12.40;99.90;;;;;;5027525;27;20102;-74
2022/07/05 00:14:56;;;;;;;6.78;2.97;;;12.30;99.90;;;;;;5030903;28;20133;-74
2022/07/05 00:17:22;;;;;;;6.88;3.03;;;12.30;99.90;;;;;;5024357;28;20405;-74
2022/07/05 00:19:48;;;;;;;4.22;2.35;;;12.30;99.90;;;;;;5026354;28;20044;-74
2022/07/05 00:22:14;;;;;;;6.25;3.10;;;12.20;99.90;;;;;;5022276;28;20440;-73
2022/07/05 00:24:40;;;;;;;6.68;3.65;;;12.20;99.90;;;;;;5042192;28;20052;-74
2022/07/05 00:27:05;;;;;;;6.40;3.30;;;12.20;99.90;;;;;;5042156;27;20071;-74
2022/07/05 00:29:31;;;;;;;7.40;2.92;;;12.10;99.90;;;;;;5031266;28;20137;-74
2022/07/05 00:31:57;;;;;;;5.18;2.75;;;12.10;99.90;;;;;;5014131;28;20044;-74
2022/07/05 00:34:23;;;;;;;6.03;2.65;;;12.20;99.90;;;;;;5022499;28;20037;-74
2022/07/05 00:36:48;;;;;;;5.43;2.80;;;12.10;99.90;;;;;;5042222;28;20041;-74
2022/07/05 00:39:14;;;;;;;6.55;3.45;;;12.00;99.90;;;;;;5033950;28;20331;-74
2022/07/05 00:41:40;;;;;;;8.02;3.78;;;12.00;99.90;;;;;;5018816;27;20038;-73
2022/07/05 00:44:11;;;;;;;7.72;3.60;;;11.90;99.90;;;;;;5032629;28;20052;-74
2022/07/05 00:46:37;;;;;;;6.88;3.33;;;11.90;99.90;;;;;;5030468;27;20427;-75
2022/07/05 00:49:06;;;;;;;6.07;2.80;;;11.90;99.90;;;;;;5028104;27;20531;-74
2022/07/05 00:51:34;;;;;;;7.63;3.17;;;11.90;99.90;;;;;;5047578;27;20037;-74
2022/07/05 00:54:01;;;;;;;8.63;3.97;;;11.90;99.90;;;;;;5032311;27;20037;-75
2022/07/05 00:56:28;;;;;;;7.82;3.35;;;11.80;99.90;;;;;;5014397;28;20045;-74
2022/07/05 00:58:54;;;;;;;8.18;3.28;;;12.00;99.90;;;;;;5031427;27;20048;-74
2022/07/05 01:01:20;;;;;;;6.25;2.88;;;11.90;99.90;;;;;;5044128;28;20327;-74
2022/07/05 01:03:46;;;;;;;9.48;3.28;;;11.80;99.90;;;;;;5042796;28;20453;-74
2022/07/05 01:06:13;;;;;;;7.30;3.22;;;11.90;99.90;;;;;;5028011;27;20415;-74
2022/07/05 01:08:42;;;;;;;8.32;3.20;;;11.80;99.90;;;;;;5028044;28;20049;-74
2022/07/05 01:11:09;;;;;;;6.28;3.22;;;11.90;99.90;;;;;;5032639;27;20482;-74
2022/07/05 01:13:36;;;;;;;7.22;3.60;;;11.80;99.90;;;;;;5008552;28;20049;-74
2022/07/05 01:16:02;;;;;;;8.15;3.03;;;11.80;99.90;;;;;;5044302;28;20553;-73
2022/07/05 01:18:29;;;;;;;7.72;3.10;;;11.80;99.90;;;;;;5025016;27;20045;-74
2022/07/05 01:20:55;;;;;;;7.63;3.75;;;11.90;99.90;;;;;;5030720;27;20064;-73
2022/07/05 01:23:23;;;;;;;7.55;3.50;;;11.70;99.90;;;;;;5030369;27;20049;-74
2022/07/05 01:25:49;;;;;;;6.03;3.22;;;11.70;99.90;;;;;;5009808;28;20125;-73
2022/07/05 01:28:15;;;;;;;9.15;3.40;;;11.70;99.90;;;;;;5045395;27;20503;-74
2022/07/05 01:30:42;;;;;;;7.32;3.20;;;11.70;99.90;;;;;;5044456;27;20048;-74
2022/07/05 01:33:09;;;;;;;9.30;3.47;;;11.80;99.90;;;;;;5009270;28;20037;-74
2022/07/05 01:35:35;;;;;;;6.28;3.25;;;11.60;99.90;;;;;;5026858;27;20339;-74
2022/07/05 01:38:01;;;;;;;6.05;2.90;;;11.60;99.90;;;;;;5024362;27;20052;-73
2022/07/05 01:40:28;;;;;;;5.63;3.08;;;11.60;99.90;;;;;;5057432;27;20394;-74
2022/07/05 01:42:54;;;;;;;6.45;3.40;;;11.60;99.90;;;;;;5047611;27;20040;-74
2022/07/05 01:48:07;;;;;;;9.82;3.78;;;11.60;99.90;;;;;;5043173;28;20438;-74
2022/07/05 01:50:36;;;;;;;7.40;3.80;;;11.60;99.90;;;;;;5027065;28;20463;-75
2022/07/05 01:53:03;;;;;;;8.00;3.90;;;11.60;99.90;;;;;;5026000;28;20037;-74
2022/07/05 01:55:29;;;;;;;6.80;3.28;;;11.50;99.90;;;;;;5027135;27;20049;-74
2022/07/05 01:57:55;;;;;;;7.70;3.80;;;11.50;99.90;;;;;;5053867;27;20063;-74
2022/07/05 02:00:20;;;;;;;8.25;3.55;;;11.50;99.90;;;;;;5024737;28;20048;-74
2022/07/05 02:02:47;;;;;;;8.32;3.88;;;11.40;99.90;;;;;;5033236;27;20029;-74
2022/07/05 02:05:13;;;;;;;8.43;3.80;;;11.50;99.90;;;;;;5042732;27;20175;-74
2022/07/05 02:07:58;;;;;;;6.63;3.65;;;11.40;99.90;;;;;;5025140;28;20076;-75
2022/07/05 02:10:24;;;;;;;6.40;3.83;;;11.50;99.90;;;;;;5043109;28;20049;-75
2022/07/05 02:12:50;;;;;;;7.95;3.95;;;11.40;99.90;;;;;;5042647;27;20060;-74
2022/07/05 02:15:15;;;;;;;8.85;4.38;;;11.40;99.90;;;;;;5025218;27;20037;-74
2022/07/05 02:17:41;;;;;;;7.85;4.30;;;11.40;99.90;;;;;;5027189;28;20127;-74
2022/07/05 02:20:07;;;;;;;9.63;4.43;;;11.40;99.90;;;;;;5041477;27;21247;-74
2022/07/05 02:22:33;;;;;;;9.57;4.65;;;11.30;99.90;;;;;;5013955;28;20052;-74
2022/07/05 02:24:59;;;;;;;7.57;4.30;;;11.30;99.90;;;;;;5009122;27;20044;-74
2022/07/05 02:27:25;;;;;;;7.90;3.83;;;11.30;99.90;;;;;;5025350;27;20132;-75
2022/07/05 02:29:50;;;;;;;9.95;4.57;;;11.30;99.90;;;;;;5029609;27;20060;-74
2022/07/05 02:32:16;;;;;;;8.80;4.70;;;11.30;99.90;;;;;;5040580;27;20045;-74
2022/07/05 02:34:42;;;;;;;7.20;4.50;;;11.30;99.90;;;;;;5024797;28;20037;-74
2022/07/05 02:37:07;;;;;;;8.60;4.72;;;11.30;99.90;;;;;;5009923;28;20037;-74
2022/07/05 02:39:33;;;;;;;9.05;4.45;;;11.30;99.90;;;;;;5030650;27;20037;-74
2022/07/05 02:41:59;;;;;;;7.47;4.57;;;11.20;99.90;;;;;;5030453;27;20052;-74
2022/07/05 02:44:24;;;;;;;8.40;4.22;;;11.20;99.90;;;;;;5043762;27;20417;-74
2022/07/05 02:46:50;;;;;;;8.00;4.50;;;11.20;99.90;;;;;;5024943;27;20131;-74
2022/07/05 02:49:16;;;;;;;9.68;4.63;;;11.20;99.90;;;;;;5024955;28;20184;-74
2022/07/05 02:51:41;;;;;;;8.77;4.68;;;11.20;99.90;;;;;;5032870;27;20045;-74
2022/07/05 02:54:07;;;;;;;9.57;5.03;;;11.20;99.90;;;;;;5044325;27;20079;-74
2022/07/05 02:56:33;;;;;;;9.90;4.85;;;11.20;99.90;;;;;;5027017;27;20068;-73
2022/07/05 02:58:59;;;;;;;10.82;5.15;;;11.20;99.90;;;;;;5026001;28;20049;-73
2022/07/05 03:01:24;;;;;;;10.15;5.35;;;11.20;99.90;;;;;;5026331;28;20047;-73
2022/07/05 03:03:50;;;;;;;8.45;4.90;;;11.10;99.90;;;;;;5030709;28;20404;-73
2022/07/05 03:06:16;;;;;;;8.20;5.05;;;11.20;99.90;;;;;;5025065;28;20072;-73
2022/07/05 03:08:42;;;;;;;9.13;5.20;;;11.10;99.90;;;;;;5024013;28;20127;-73
2022/07/05 03:11:07;;;;;;;9.23;5.60;;;11.10;99.90;;;;;;5056522;27;20056;-73
2022/07/05 03:13:33;;;;;;;9.20;5.47;;;11.10;99.90;;;;;;5028353;27;20046;-73
2022/07/05 03:15:59;;;;;;;8.75;5.20;;;11.20;99.90;;;;;;5003972;28;20152;-73
2022/07/05 03:18:24;;;;;;;9.38;5.25;;;11.10;99.90;;;;;;5006262;28;20497;-73
2022/07/05 03:20:50;;;;;;;9.85;4.95;;;11.10;99.90;;;;;;5022677;28;20037;-73
2022/07/05 03:23:16;;;;;;;9.27;5.15;;;11.10;99.90;;;;;;5005074;28;20100;-73
2022/07/05 03:25:42;;;;;;;8.82;5.50;;;11.10;99.90;;;;;;5020482;28;20132;-73
2022/07/05 03:28:07;;;;;;;10.18;5.80;;;11.10;99.90;;;;;;5024092;27;20033;-73
2022/07/05 03:30:33;;;;;;;9.55;5.20;;;11.10;99.90;;;;;;5019315;28;20452;-72
2022/07/05 03:32:59;;;;;;;12.20;5.10;;;11.10;99.90;;;;;;5028319;27;20038;-73
2022/07/05 03:35:26;;;;;;;8.45;5.63;;;11.10;99.90;;;;;;5020789;28;20052;-72
2022/07/05 03:37:51;;;;;;;7.32;4.70;;;11.20;99.90;;;;;;5023807;28;20532;-73
2022/07/05 03:40:17;;;;;;;8.32;5.22;;;11.10;99.90;;;;;;5021797;28;20033;-73
2022/07/05 03:42:42;;;;;;;7.55;5.28;;;11.10;99.90;;;;;;5022260;28;20447;-73
2022/07/05 03:45:09;;;;;;;10.18;5.78;;;11.10;99.90;;;;;;5021388;28;20101;-73
2022/07/05 03:47:35;;;;;;;11.27;5.88;;;11.10;99.90;;;;;;5005297;28;20052;-73
2022/07/05 03:50:00;;;;;;;8.95;5.47;;;11.30;99.90;;;;;;5021145;28;20038;-73
2022/07/05 03:52:26;;;;;;;9.00;5.10;;;11.20;99.90;;;;;;5020656;28;20037;-74
2022/07/05 03:54:55;;;;;;;8.38;5.70;;;11.10;99.90;;;;;;5004149;28;20041;-73
2022/07/05 03:57:21;;;;;;;8.80;5.65;;;11.20;99.90;;;;;;5003194;28;20048;-73
2022/07/05 03:59:46;;;;;;;10.60;5.60;;;11.20;99.90;;;;;;5020170;28;20049;-73
2022/07/05 04:02:12;;;;;;;10.40;6.55;;;11.30;99.90;;;;;;5021134;28;20515;-73
2022/07/05 04:04:38;;;;;;;14.23;6.15;;;11.40;99.90;;;;;;5021918;28;20046;-73
2022/07/05 04:07:03;;;;;;;9.80;5.78;;;11.40;99.90;;;;;;5023766;28;20037;-73
2022/07/05 04:09:29;;;;;;;8.80;5.60;;;11.50;99.90;;;;;;5022863;28;20068;-73
2022/07/05 04:11:55;;;;;;;9.07;5.85;;;11.60;99.90;;;;;;5025883;27;20053;-73
2022/07/05 04:14:21;;;;;;;10.95;6.53;;;11.70;99.90;;;;;;5023362;28;20041;-73
2022/07/05 04:16:46;;;;;;;10.27;5.53;;;11.80;99.90;;;;;;5022918;28;20044;-72
2022/07/05 04:19:12;;;;;;;9.55;5.25;;;12.00;99.90;;;;;;5024446;28;20559;-73
2022/07/05 04:21:38;;;;;;;8.98;5.82;;;12.00;99.90;;;;;;5020097;28;20038;-72
2022/07/05 04:24:04;;;;;;;7.97;5.63;;;12.20;99.90;;;;;;5021311;28;20048;-73
2022/07/05 04:26:29;;;;;;;8.63;5.57;;;12.30;99.90;;;;;;5024333;28;20549;-73
2022/07/05 04:28:55;;;;;;;8.75;5.70;;;12.40;99.90;;;;;;5020564;28;20057;-73
2022/07/05 04:31:21;;;;;;;7.03;4.78;;;12.50;99.90;;;;;;5003540;28;20257;-73
2022/07/05 04:33:46;;;;;;;8.65;5.22;;;12.60;99.90;;;;;;5021309;28;20397;-73
2022/07/05 04:36:12;;;;;;;10.38;5.30;;;12.70;99.90;;;;;;5037039;27;20370;-73
2022/07/05 04:38:38;;;;;;;9.75;5.63;;;12.90;99.90;;;;;;5021773;28;20387;-73
2022/07/05 04:41:03;;;;;;;9.82;5.72;;;13.60;99.90;;;;;;5024047;28;20046;-73
2022/07/05 04:43:29;;;;;;;7.38;4.38;;;13.90;99.90;;;;;;5110652;27;20042;-73
2022/07/05 04:45:55;;;;;;;7.75;4.40;;;14.00;99.90;;;;;;5018989;28;20079;-73
2022/07/05 04:48:20;;;;;;;9.15;4.72;;;14.00;99.90;;;;;;5022171;28;20057;-73
2022/07/05 04:50:46;;;;;;;7.57;4.45;;;14.10;99.90;;;;;;5031729;28;20045;-73
2022/07/05 04:53:12;;;;;;;9.60;4.80;;;14.10;99.90;;;;;;5023233;28;20102;-74
2022/07/05 04:55:37;;;;;;;11.30;4.25;;;14.10;99.90;;;;;;5024918;28;20052;-74
2022/07/05 04:58:03;;;;;;;7.75;4.35;;;14.20;99.90;;;;;;5017759;28;20124;-73
2022/07/05 05:00:29;;;;;;;8.73;3.78;;;15.60;99.90;;;;;;5018880;28;20049;-73
2022/07/05 05:02:54;;;;;;;7.15;3.53;;;17.20;99.90;;;;;;5016426;28;20129;-74
2022/07/05 05:05:20;;;;;;;5.68;2.65;;;18.80;99.90;;;;;;5015955;28;20056;-74
2022/07/05 05:07:46;;;;;;;8.48;3.17;;;20.30;99.90;;;;;;5017255;28;20064;-73
2022/07/05 05:10:12;;;;;;;5.88;2.95;;;21.50;99.90;;;;;;5016839;28;20134;-73
2022/07/05 05:12:38;;;;;;;8.18;2.72;;;22.60;99.90;;;;;;5017776;28;20170;-72
2022/07/05 05:15:08;;;;;;;7.20;2.80;;;23.50;99.90;;;;;;5019357;28;20058;-73
2022/07/05 05:17:39;;;;;;;5.25;2.55;;;24.20;99.90;;;;;;5021510;28;20516;-72
2022/07/05 05:20:07;;;;;;;5.80;2.38;;;24.90;99.90;;;;;;5035317;27;20477;-72
2022/07/05 05:22:32;;;;;;;9.70;2.40;;;25.50;99.90;;;;;;5015622;28;20102;-72
2022/07/05 05:24:58;;;;;;;6.47;2.20;;;26.00;99.90;;;;;;5018348;28;20056;-73
2022/07/05 05:27:24;;;;;;;5.85;2.35;;;26.50;99.90;;;;;;5022194;28;20133;-73
2022/07/05 05:29:49;;;;;;;6.38;2.42;;;26.80;99.90;;;;;;5020002;28;20049;-73
2022/07/05 05:32:15;;;;;;;3.20;1.80;;;27.20;99.90;;;;;;5023957;28;20042;-72
2022/07/05 05:34:41;;;;;;;5.32;1.80;;;27.20;99.90;;;;;;5028527;27;20095;-73
2022/07/05 05:37:06;;;;;;;6.80;2.03;;;25.70;99.90;;;;;;5020511;28;20090;-73
2022/07/05 05:39:32;;;;;;;6.03;1.92;;;24.30;99.90;;;;;;5024660;28;20046;-73
2022/07/05 05:41:58;;;;;;;5.30;1.90;;;23.10;99.90;;;;;;5036594;27;20044;-74
2022/07/05 05:44:23;;;;;;;9.18;2.85;;;22.00;99.90;;;;;;5034619;27;20049;-73
2022/07/05 05:46:49;;;;;;;4.65;1.77;;;21.10;99.90;;;;;;5026668;28;20073;-73
2022/07/05 05:49:15;;;;;;;4.20;1.70;;;20.40;99.90;;;;;;5022545;28;20045;-73
2022/07/05 05:51:40;;;;;;;4.68;1.52;;;19.80;99.90;;;;;;5031313;27;20064;-73
2022/07/05 05:54:06;;;;;;;4.68;1.45;;;19.20;99.90;;;;;;5031634;27;20048;-74
2022/07/05 05:56:32;;;;;;;4.68;1.50;;;18.90;99.90;;;;;;5024616;28;20042;-73
2022/07/05 05:58:57;;;;;;;4.75;1.98;;;18.60;99.90;;;;;;5026161;27;20472;-74
2022/07/05 06:01:23;;;;;;;5.93;1.63;;;18.80;99.90;;;;;;5033978;27;20440;-75
2022/07/05 06:03:49;;;;;;;6.93;1.50;;;18.90;99.90;;;;;;5037997;27;20041;-74
2022/07/05 06:06:14;;;;;;;8.50;1.45;;;19.90;99.90;;;;;;5023767;27;20027;-73
2022/07/05 06:08:40;;;;;;;3.97;1.50;;;20.20;99.90;;;;;;5022555;28;20045;-73
2022/07/05 06:11:06;;;;;;;5.85;1.10;;;20.80;99.90;;;;;;5023253;28;20053;-74
2022/07/05 06:13:32;;;;;;;5.70;1.50;;;22.10;99.90;;;;;;5022564;28;20069;-74
2022/07/05 06:15:58;;;;;;;6.93;1.48;;;23.20;99.90;;;;;;5023613;28;20402;-74
2022/07/05 06:18:23;;;;;;;4.35;1.25;;;23.10;99.90;;;;;;5019460;28;20053;-73
2022/07/05 06:20:49;;;;;;;9.00;1.50;;;23.00;99.90;;;;;;5004234;28;20508;-74
2022/07/05 06:23:15;;;;;;;6.55;1.50;;;24.50;99.90;;;;;;5021660;27;20033;-74
2022/07/05 06:25:41;;;;;;;5.18;1.30;;;25.10;99.90;;;;;;5017625;28;20128;-75
2022/07/05 06:28:08;;;;;;;6.78;1.40;;;24.10;99.90;;;;;;5029915;27;20116;-75
2022/07/05 06:30:37;;;;;;;4.32;1.10;;;22.90;99.90;;;;;;5017460;28;20080;-74
2022/07/05 06:33:03;;;;;;;6.55;1.10;;;21.80;99.90;;;;;;5024504;27;20469;-75
2022/07/05 06:35:29;;;;;;;6.28;1.23;;;20.90;99.90;;;;;;5050443;27;20140;-73
2022/07/05 06:38:04;;;;;;;5.47;1.25;;;20.30;99.90;;;;;;5032337;27;20462;-73
2022/07/05 06:40:35;;;;;;;4.82;1.30;;;19.80;99.90;;;;;;5039330;27;20377;-74
2022/07/05 06:43:05;;;;;;;5.07;1.20;;;19.40;99.90;;;;;;5033422;27;20042;-74
2022/07/05 06:45:32;;;;;;;8.45;1.30;;;19.10;99.90;;;;;;5014317;27;20308;-74
2022/07/05 06:48:00;;;;;;;2.63;0.75;;;18.80;99.90;;;;;;5031946;27;20047;-73
2022/07/05 06:50:28;;;;;;;6.00;1.00;;;18.70;99.90;;;;;;5030493;27;20037;-74
2022/07/05 06:52:54;;;;;;;7.13;1.73;;;18.50;99.90;;;;;;5020553;27;20081;-73
2022/07/05 06:55:21;;;;;;;4.55;1.10;;;18.40;99.90;;;;;;5014946;27;20183;-73
2022/07/05 06:57:47;;;;;;;7.25;1.40;;;18.40;99.90;;;;;;5022751;27;20038;-74
2022/07/05 07:00:13;;;;;;;5.15;1.13;;;18.30;99.90;;;;;;5019387;27;20049;-73
2022/07/05 07:02:39;;;;;;;6.63;1.20;;;18.40;99.90;;;;;;5005988;28;20045;-74
2022/07/05 07:05:06;;;;;;;6.43;0.88;;;18.40;99.90;;;;;;5019110;28;20056;-74
2022/07/05 07:10:17;;;;;;;5.68;1.00;;;18.80;99.90;;;;;;5017993;28;20057;-73
2022/07/05 07:12:42;;;;;;;3.33;1.00;;;18.90;99.90;;;;;;5018599;28;20156;-73
2022/07/05 07:15:08;;;;;;;5.75;1.10;;;19.10;99.90;;;;;;5018687;28;20565;-73
2022/07/05 07:17:34;;;;;;;5.43;0.90;;;19.30;99.90;;;;;;5024054;27;20059;-74
2022/07/05 07:20:00;;;;;;;5.32;0.80;;;19.60;99.90;;;;;;5003180;27;20053;-75
2022/07/05 07:22:25;;;;;;;5.70;0.95;;;19.80;99.90;;;;;;5020322;27;20077;-74
2022/07/05 07:24:52;;;;;;;5.22;0.85;;;20.00;99.90;;;;;;5016222;28;20072;-74
2022/07/05 07:27:18;;;;;;;3.97;0.90;;;20.10;99.90;;;;;;5050764;27;20398;-74
2022/07/05 07:29:44;;;;;;;5.25;0.93;;;20.30;99.90;;;;;;5008911;28;20409;-74
2022/07/05 07:32:09;;;;;;;5.90;1.10;;;20.50;99.90;;;;;;5018428;27;20549;-72
2022/07/05 07:34:37;;;;;;;2.78;1.08;;;20.60;99.90;;;;;;5015042;27;21473;-72
2022/07/05 07:37:03;;;;;;;3.15;0.80;;;20.70;99.90;;;;;;5018179;28;20561;-72
2022/07/05 07:39:31;;;;;;;4.85;0.90;;;20.50;99.90;;;;;;5023959;27;20170;-72
2022/07/05 07:41:58;;;;;;;5.38;1.10;;;20.40;99.90;;;;;;5018160;28;20049;-73
2022/07/05 07:44:23;;;;;;;4.03;0.70;;;20.10;99.90;;;;;;5018689;28;20052;-73
2022/07/05 07:46:50;;;;;;;7.35;1.10;;;19.90;99.90;;;;;;5023196;27;20045;-72
2022/07/05 07:49:16;;;;;;;5.47;1.00;;;19.80;99.90;;;;;;5023510;27;21357;-73
2022/07/05 07:51:42;;;;;;;5.15;0.98;;;19.90;99.90;;;;;;5015840;27;20052;-73
2022/07/05 07:54:08;;;;;;;6.28;1.20;;;20.30;99.90;;;;;;5021235;27;20041;-73
2022/07/05 07:56:34;;;;;;;7.28;0.93;;;20.70;99.90;;;;;;5022999;28;20042;-72
2022/07/05 07:59:00;;;;;;;4.50;1.00;;;21.10;99.90;;;;;;5015233;28;20133;-73
2022/07/05 08:01:25;;;;;;;4.65;0.82;;;21.50;99.90;;;;;;5000735;28;20050;-74
2022/07/05 08:03:52;;;;;;;4.90;1.20;;;21.90;99.90;;;;;;5017320;28;20072;-73
2022/07/05 08:06:17;;;;;;;8.18;1.02;;;22.40;99.90;;;;;;5032068;27;20494;-74
2022/07/05 08:08:44;;;;;;;4.75;0.90;;;22.90;99.90;;;;;;5009098;28;20117;-73
2022/07/05 08:11:11;;;;;;;3.92;0.80;;;23.10;99.90;;;;;;5004136;28;20176;-73
2022/07/05 08:13:39;;;;;;;2.88;0.70;;;23.10;99.90;;;;;;5006849;28;20100;-72
2022/07/05 08:16:10;;;;;;;5.00;0.88;;;22.80;99.90;;;;;;5004067;28;20201;-73
2022/07/05 08:21:37;;;;;;;3.80;0.80;;;21.90;99.90;;;;;;5009224;28;20449;-70
2022/07/05 08:24:11;;;;;;;4.35;0.95;;;21.90;99.90;;;;;;5007830;28;20132;-73
2022/07/05 08:26:39;;;;;;;6.38;0.90;;;22.10;99.90;;;;;;5005265;27;20061;-71
2022/07/05 08:29:07;;;;;;;3.42;1.15;;;22.40;99.90;;;;;;4991289;28;20068;-72
2022/07/05 08:31:42;;;;;;;3.20;0.70;;;22.50;99.90;;;;;;5010138;28;20427;-72
2022/07/05 08:34:08;;;;;;;4.03;1.02;;;22.30;99.90;;;;;;5006345;28;20046;-74
2022/07/05 08:36:34;;;;;;;6.43;1.00;;;22.30;99.90;;;;;;4992683;28;20080;-73
2022/07/05 08:38:59;;;;;;;4.00;1.10;;;22.70;99.90;;;;;;5002176;28;21638;-73
2022/07/05 08:41:25;;;;;;;4.72;1.10;;;23.00;99.90;;;;;;4990842;28;20064;-74
2022/07/05 08:43:51;;;;;;;3.25;0.77;;;23.20;99.80;;;;;;5012249;28;20315;-73
2022/07/05 08:46:18;;;;;;;4.32;0.90;;;23.00;98.50;;;;;;5006342;28;20569;-72
2022/07/05 08:48:47;;;;;;;2.70;0.73;;;23.00;99.90;;;;;;5007698;28;20049;-72
2022/07/05 08:51:16;;;;;;;3.92;0.95;;;23.20;99.90;;;;;;5008986;28;20074;-72
2022/07/05 08:53:44;;;;;;;4.40;0.73;;;23.60;99.40;;;;;;5016013;28;20166;-73
2022/07/05 08:56:11;;;;;;;2.90;0.63;;;23.40;97.30;;;;;;5009072;28;20050;-73
2022/07/05 08:58:37;;;;;;;4.93;0.98;;;23.00;97.80;;;;;;4994407;28;20045;-72
2022/07/05 09:01:05;;;;;;;7.13;0.80;;;23.10;99.50;;;;;;5009579;28;20502;-72
2022/07/05 09:03:46;;;;;;;8.80;1.58;;;23.60;98.80;;;;;;4997321;28;20052;-72
2022/07/05 09:06:16;;;;;;;6.15;1.02;;;24.00;98.90;;;;;;5001160;28;21067;-71
2022/07/05 09:08:43;;;;;;;3.42;1.00;;;24.00;95.80;;;;;;5021270;27;20294;-72
2022/07/05 09:11:11;;;;;;;6.10;1.08;;;24.00;97.30;;;;;;5019969;28;20050;-73
2022/07/05 09:13:40;;;;;;;3.10;0.80;;;24.20;97.40;;;;;;5019939;27;20065;-73
2022/07/05 09:16:06;;;;;;;5.05;0.90;;;24.60;96.70;;;;;;5018314;28;20135;-72
2022/07/05 09:18:46;;;;;;;4.10;0.80;;;24.80;96.00;;;;;;5019691;28;20639;-72
2022/07/05 09:21:19;;;;;;;5.85;1.00;;;25.10;96.10;;;;;;5018143;27;20413;-72
2022/07/05 09:23:54;;;;;;;7.00;1.10;;;25.10;93.90;;;;;;5016150;28;20049;-71
2022/07/05 09:26:20;;;;;;;4.88;1.00;;;24.60;93.10;;;;;;5018150;27;20086;-72
2022/07/05 09:28:57;;;;;;;5.82;1.40;;;23.90;93.40;;;;;;5016614;27;20042;-71
2022/07/05 09:31:31;;;;;;;4.72;0.82;;;23.20;93.30;;;;;;5018379;28;20048;-74
2022/07/05 09:34:04;;;;;;;6.32;0.95;;;22.60;93.90;;;;;;5022147;27;20041;-73
2022/07/05 09:36:51;;;;;;;3.17;0.90;;;22.60;94.60;;;;;;5017739;27;20045;-73
2022/07/05 09:39:33;;;;;;;5.68;0.90;;;23.20;96.40;;;;;;5016517;28;20528;-73
2022/07/05 09:42:20;;;;;;;5.47;0.90;;;23.70;94.80;;;;;;5019660;27;20072;-71
2022/07/05 09:44:47;;;;;;;5.00;1.33;;;24.10;93.20;;;;;;5019125;27;20056;-72
2022/07/05 09:47:15;;;;;;;3.17;0.82;;;24.40;93.00;;;;;;5031800;27;20049;-72
2022/07/05 09:49:51;;;;;;;7.57;1.02;;;24.50;92.80;;;;;;5002266;28;21294;-73
2022/07/05 09:52:27;;;;;;;5.60;0.77;;;24.10;92.10;;;;;;5019774;28;20057;-73
2022/07/05 09:55:18;;;;;;;4.93;1.00;;;23.60;91.90;;;;;;5020616;27;20041;-72
2022/07/05 09:57:46;;;;;;;6.43;1.10;;;23.50;92.30;;;;;;5018085;27;20080;-71
2022/07/05 10:00:15;;;;;;;4.97;0.73;;;23.70;92.00;;;;;;5016620;28;20045;-73
2022/07/05 10:02:48;;;;;;;4.03;0.95;;;23.40;92.20;;;;;;5018353;28;20766;-72
2022/07/05 10:05:16;;;;;;;6.35;1.13;;;22.90;92.80;;;;;;5046014;28;20042;-72
2022/07/05 10:07:53;;;;;;;9.77;1.00;;;22.50;93.10;;;;;;5000094;27;20045;-73
2022/07/05 10:10:30;;;;;;;3.90;0.82;;;22.20;93.10;;;;;;5006821;27;20088;-73
2022/07/05 10:13:05;;;;;;;6.32;0.90;;;22.00;94.00;;;;;;5035337;27;20225;-73
2022/07/05 10:15:33;;;;;;;5.13;0.80;;;21.70;93.90;;;;;;5011308;28;20518;-72
2022/07/05 10:18:03;;;;;;;5.00;0.93;;;21.60;94.50;;;;;;5013245;28;20452;-72
2022/07/05 10:20:46;;;;;;;3.13;0.80;;;21.60;95.20;;;;;;5013129;27;20487;-71
2022/07/05 10:23:17;;;;;;;5.85;1.00;;;22.10;95.70;;;;;;4999092;28;20102;-72
2022/07/05 10:25:48;;;;;;;5.43;1.00;;;22.80;94.90;;;;;;4993893;28;20038;-71
2022/07/05 10:28:18;;;;;;;4.20;0.80;;;23.20;94.50;;;;;;5015015;27;20177;-72
2022/07/05 10:30:49;;;;;;;4.15;1.00;;;23.40;94.00;;;;;;5014259;28;20046;-73
2022/07/05 10:33:20;;;;;;;1.88;0.50;;;23.60;92.90;;;;;;5018490;27;20045;-72
2022/07/05 10:35:47;;;;;;;3.47;0.63;;;23.70;93.50;;;;;;5013231;27;20045;-72
2022/07/05 10:38:13;;;;;;;4.38;0.80;;;24.00;91.70;;;;;;5021690;27;20049;-73
2022/07/05 10:40:42;;;;;;;5.53;1.30;;;24.10;91.20;;;;;;5046468;27;20085;-73
2022/07/05 10:43:10;;;;;;;5.45;0.90;;;24.10;90.10;;;;;;5016452;27;20158;-73
2022/07/05 10:45:38;;;;;;;6.70;1.27;;;23.80;91.10;;;;;;5001659;28;20473;-73
2022/07/05 10:48:20;;;;;;;6.00;1.10;;;23.40;91.20;;;;;;4994176;27;20565;-71
2022/07/05 10:51:00;;;;;;;5.18;1.00;;;23.00;92.10;;;;;;5001898;27;21024;-73
2022/07/05 10:53:35;;;;;;;4.88;1.08;;;22.70;91.80;;;;;;5002679;27;20549;-70
2022/07/05 10:56:04;;;;;;;7.22;1.55;;;22.40;91.60;;;;;;5002435;28;20046;-73
2022/07/05 10:58:46;;;;;;;4.68;0.82;;;22.30;93.10;;;;;;4989983;28;20476;-72
2022/07/05 11:01:12;;;;;;;3.70;0.82;;;22.30;93.50;;;;;;5000547;28;20046;-72
2022/07/05 11:03:45;;;;;;;3.97;0.95;;;22.40;94.00;;;;;;5001745;27;20046;-71
2022/07/05 11:06:37;;;;;;;4.93;0.75;;;22.40;93.80;;;;;;4999657;27;20153;-73
2022/07/05 11:09:03;;;;;;;5.25;0.70;;;22.30;92.10;;;;;;5016727;27;20118;-72
2022/07/05 11:11:36;;;;;;;2.70;0.80;;;22.00;92.30;;;;;;4989368;28;20046;-73
2022/07/05 11:14:25;;;;;;;4.65;0.65;;;21.90;92.90;;;;;;5021961;27;20081;-72
2022/07/05 11:17:22;;;;;;;3.72;0.80;;;22.30;94.70;;;;;;5008932;27;20056;-72
2022/07/05 11:20:04;;;;;;;6.72;1.20;;;22.80;93.70;;;;;;5020672;27;20520;-71
2022/07/05 11:22:30;;;;;;;6.45;0.90;;;23.30;94.50;;;;;;5005793;27;20736;-73
2022/07/05 11:24:57;;;;;;;3.45;0.73;;;23.70;92.70;;;;;;5021948;27;20049;-72
2022/07/05 11:27:23;;;;;;;3.58;0.70;;;24.20;93.20;;;;;;5007037;27;20509;-72
2022/07/05 11:29:51;;;;;;;6.03;1.00;;;24.60;92.80;;;;;;5024735;27;21498;-72
2022/07/05 11:32:30;;;;;;;3.58;0.93;;;24.90;91.00;;;;;;5024049;27;20471;-71
2022/07/05 11:35:17;;;;;;;4.15;0.93;;;24.80;90.40;;;;;;5017223;27;20653;-72
2022/07/05 11:38:03;;;;;;;6.80;1.25;;;24.40;89.60;;;;;;5008176;27;20057;-72
2022/07/05 11:40:40;;;;;;;2.47;0.60;;;23.90;89.00;;;;;;5024000;27;20059;-72
2022/07/05 11:43:07;;;;;;;7.13;1.15;;;23.30;89.20;;;;;;4990839;28;20049;-72
2022/07/05 11:45:34;;;;;;;3.33;0.70;;;22.80;90.00;;;;;;5035482;27;20090;-73
2022/07/05 11:48:03;;;;;;;6.28;1.25;;;22.40;90.60;;;;;;4988294;28;20528;-72
2022/07/05 11:50:34;;;;;;;9.55;1.38;;;22.00;91.60;;;;;;5040483;27;20045;-71
2022/07/05 11:53:00;;;;;;;;;;;21.70;92.90;;;;;;5008432;27;20043;-72
2022/07/05 11:55:28;;;;;;;6.95;1.20;;;21.40;93.90;;;;;;5019208;28;19932;-71
2022/07/05 11:57:55;;;;;;;7.72;1.02;;;21.10;94.80;;;;;;5034386;27;20060;-72
2022/07/05 12:00:29;;;;;;;5.47;1.33;;;20.80;94.40;;;;;;5008226;27;20052;-72
2022/07/05 12:02:55;;;;;;;5.47;0.82;;;20.70;95.20;;;;;;5010760;27;20139;-72
2022/07/05 12:05:21;;;;;;;5.20;1.00;;;20.90;96.20;;;;;;5027290;27;20466;-72
2022/07/05 12:07:52;;;;;;;5.18;1.10;;;21.00;96.60;;;;;;5002592;28;20067;-72
2022/07/05 12:13:07;;;;;;;6.40;1.17;;;21.00;96.60;;;;;;5036821;27;20060;-71
2022/07/05 12:15:34;;;;;;;7.03;1.20;;;20.90;97.40;;;;;;5025306;27;20069;-72
2022/07/05 12:18:03;;;;;;;5.40;1.05;;;20.80;97.50;;;;;;5022742;27;20060;-72
2022/07/05 12:20:30;;;;;;;5.47;0.80;;;20.80;97.80;;;;;;5004558;28;20810;-73
2022/07/05 12:22:58;;;;;;;8.07;1.80;;;20.60;98.00;;;;;;5003123;27;20045;-72
2022/07/05 12:25:25;;;;;;;4.35;1.30;;;20.60;98.40;;;;;;5036162;27;20048;-72
2022/07/05 12:27:53;;;;;;;5.13;1.30;;;20.40;98.80;;;;;;5020392;27;20377;-73
2022/07/05 12:30:19;;;;;;;6.43;1.20;;;20.30;99.00;;;;;;5009361;27;20045;-72
2022/07/05 12:32:58;;;;;;;5.00;1.17;;;20.20;99.80;;;;;;5008715;28;20088;-73
2022/07/05 12:35:40;;;;;;;5.82;1.02;;;20.10;99.90;;;;;;5003824;27;20045;-73
2022/07/05 12:38:06;;;;;;;5.70;1.00;;;20.00;99.90;;;;;;5003314;27;20053;-73
2022/07/05 12:40:32;;;;;;;5.18;0.90;;;19.80;99.90;;;;;;5008135;27;20041;-74
2022/07/05 12:43:07;;;;;;;8.35;1.67;;;19.70;99.90;;;;;;5048988;27;20455;-74
2022/07/05 12:45:33;;;;;;;5.05;1.30;;;19.60;99.90;;;;;;5050474;27;20065;-74
2022/07/05 12:48:02;;;;;;;5.82;1.00;;;19.50;99.90;;;;;;5035875;27;20134;-73
2022/07/05 12:50:31;;;;;;;5.43;0.80;;;19.40;99.90;;;;;;5024848;27;20384;-74
2022/07/05 12:53:01;;;;;;;6.28;0.98;;;19.30;99.90;;;;;;5039050;27;20064;-73
2022/07/05 12:58:21;;;;;;;2.72;0.98;;;19.40;99.90;;;;;;5013864;27;20064;-73
2022/07/05 13:00:46;;;;;;;4.95;1.00;;;19.80;99.90;;;;;;5009456;27;20041;-72
2022/07/05 13:03:12;;;;;;;6.18;1.00;;;20.10;99.90;;;;;;5026850;27;20095;-73
2022/07/05 13:05:38;;;;;;;4.28;1.17;;;20.30;99.70;;;;;;5028726;27;20044;-74